Time;durP1;ratioP1;P1;durP2;ratioP2;P2;SDS_P1;SDS_P2;PMS_P1;PMS_P2;Temp;Humidity;BMP_temperature;BMP_pressure;BME280_temperature;BME280_humidity;BME280_pressure;Samples;Min_cycle;Max_cycle;Signal;HPM_P1;HPM_P2
2020/12/23 00:02:07;;;;;;;8.63;2.67;;;;;;;;;;5036027;28;20404;-79
2020/12/23 00:04:34;;;;;;;11.52;2.92;;;;;;;;;;5054086;28;20368;-86
2020/12/23 00:07:00;;;;;;;12.40;3.10;;;;;;;;;;5054118;28;20387;-79
2020/12/23 00:09:26;;;;;;;12.73;3.10;;;;;;;;;;5035872;28;20368;-82
2020/12/23 00:11:53;;;;;;;11.38;3.33;;;;;;;;;;5053673;28;20742;-82
2020/12/23 00:14:20;;;;;;;8.75;2.20;;;;;;;;;;5035947;28;20376;-80
2020/12/23 00:16:47;;;;;;;10.20;3.00;;;;;;;;;;5035750;28;20711;-83
2020/12/23 00:19:13;;;;;;;10.20;2.85;;;;;;;;;;5063887;28;20451;-83
2020/12/23 00:21:39;;;;;;;16.58;3.78;;;;;;;;;;5073999;28;20412;-84
2020/12/23 00:24:06;;;;;;;11.85;2.80;;;;;;;;;;5059643;28;20384;-79
2020/12/23 00:26:32;;;;;;;11.35;2.90;;;;;;;;;;5065384;28;20391;-76
2020/12/23 00:28:58;;;;;;;10.27;3.00;;;;;;;;;;5043302;28;20449;-80
2020/12/23 00:31:24;;;;;;;9.03;2.57;;;;;;;;;;5037492;28;20372;-81
2020/12/23 00:33:53;;;;;;;11.25;3.08;;;;;;;;;;5062304;28;20368;-80
2020/12/23 00:36:19;;;;;;;13.63;3.15;;;;;;;;;;5063076;28;20370;-79
2020/12/23 00:38:45;;;;;;;12.13;3.10;;;;;;;;;;5049482;28;20358;-79
2020/12/23 00:41:11;;;;;;;8.50;2.47;;;;;;;;;;5044697;28;20739;-83
2020/12/23 00:43:37;;;;;;;10.80;2.65;;;;;;;;;;5045628;28;20953;-79
2020/12/23 00:46:04;;;;;;;9.93;2.90;;;;;;;;;;5056228;28;20907;-79
2020/12/23 00:48:30;;;;;;;9.57;3.33;;;;;;;;;;5060283;28;20379;-76
2020/12/23 00:50:56;;;;;;;11.35;3.17;;;;;;;;;;5043905;28;20372;-79
2020/12/23 00:53:22;;;;;;;9.40;2.72;;;;;;;;;;5061280;28;20384;-81
2020/12/23 00:55:51;;;;;;;10.25;2.78;;;;;;;;;;5065563;28;20368;-80
2020/12/23 00:58:17;;;;;;;10.43;3.17;;;;;;;;;;5062351;28;20371;-82
2020/12/23 01:00:43;;;;;;;11.85;3.20;;;;;;;;;;5041836;28;20396;-79
2020/12/23 01:03:09;;;;;;;13.20;3.50;;;;;;;;;;5039764;28;20353;-79
2020/12/23 01:05:35;;;;;;;10.07;3.43;;;;;;;;;;5059808;28;20387;-79
2020/12/23 01:08:01;;;;;;;12.32;4.13;;;;;;;;;;5061811;28;20397;-80
2020/12/23 01:10:27;;;;;;;11.25;4.03;;;;;;;;;;5063380;28;20389;-83
2020/12/23 01:12:53;;;;;;;12.60;4.03;;;;;;;;;;5063963;28;20937;-79
2020/12/23 01:15:19;;;;;;;10.03;3.60;;;;;;;;;;5072878;28;20365;-78
2020/12/23 01:17:45;;;;;;;12.73;4.03;;;;;;;;;;5050964;28;20360;-77
2020/12/23 01:20:11;;;;;;;12.57;4.10;;;;;;;;;;5067634;28;20430;-77
2020/12/23 01:22:37;;;;;;;13.88;3.85;;;;;;;;;;5054717;28;20369;-78
2020/12/23 01:25:03;;;;;;;12.18;4.13;;;;;;;;;;5054385;28;20864;-78
2020/12/23 01:27:30;;;;;;;11.38;3.65;;;;;;;;;;5065330;28;20846;-78
2020/12/23 01:29:55;;;;;;;10.40;3.47;;;;;;;;;;5052366;28;20854;-78
2020/12/23 01:32:21;;;;;;;8.80;3.20;;;;;;;;;;5052422;28;20356;-78
2020/12/23 01:34:47;;;;;;;11.77;3.33;;;;;;;;;;5052885;28;20831;-78
2020/12/23 01:37:13;;;;;;;11.15;3.17;;;;;;;;;;5034461;28;20360;-78
2020/12/23 01:39:39;;;;;;;9.60;2.95;;;;;;;;;;5034543;28;20368;-78
2020/12/23 01:42:05;;;;;;;8.40;3.22;;;;;;;;;;5034332;28;20769;-78
2020/12/23 01:44:36;;;;;;;12.35;3.10;;;;;;;;;;5034237;28;20368;-78
2020/12/23 01:47:03;;;;;;;13.07;3.40;;;;;;;;;;5052578;28;20352;-78
2020/12/23 01:49:29;;;;;;;10.23;2.90;;;;;;;;;;5055897;28;20359;-78
2020/12/23 01:51:55;;;;;;;12.55;3.50;;;;;;;;;;5034384;28;20379;-78
2020/12/23 01:54:21;;;;;;;8.73;2.85;;;;;;;;;;5034523;28;20372;-78
2020/12/23 01:56:48;;;;;;;10.93;3.10;;;;;;;;;;5052184;28;20356;-78
2020/12/23 01:59:13;;;;;;;14.73;3.43;;;;;;;;;;5052464;28;20366;-77
2020/12/23 02:01:45;;;;;;;12.73;2.95;;;;;;;;;;5052443;28;20490;-78
2020/12/23 02:04:11;;;;;;;11.03;3.80;;;;;;;;;;5052522;28;20432;-78
2020/12/23 02:06:37;;;;;;;8.05;2.55;;;;;;;;;;5052789;28;20858;-78
2020/12/23 02:09:04;;;;;;;9.93;3.22;;;;;;;;;;5052043;28;20356;-78
2020/12/23 02:11:30;;;;;;;11.18;3.10;;;;;;;;;;5052533;28;20370;-78
2020/12/23 02:13:56;;;;;;;13.02;3.20;;;;;;;;;;5034547;28;20421;-78
2020/12/23 02:16:22;;;;;;;12.15;2.97;;;;;;;;;;5034359;28;20368;-78
2020/12/23 02:18:48;;;;;;;11.60;3.03;;;;;;;;;;5051932;28;20352;-78
2020/12/23 02:21:16;;;;;;;13.63;3.22;;;;;;;;;;5051734;28;20482;-77
2020/12/23 02:23:42;;;;;;;12.57;3.20;;;;;;;;;;5052517;28;20372;-78
2020/12/23 02:26:08;;;;;;;14.65;3.13;;;;;;;;;;5052020;28;20414;-78
2020/12/23 02:28:34;;;;;;;8.63;2.78;;;;;;;;;;5034129;28;20459;-78
2020/12/23 02:31:01;;;;;;;11.13;2.65;;;;;;;;;;5052306;28;20746;-77
2020/12/23 02:33:27;;;;;;;15.68;3.38;;;;;;;;;;5051928;28;20398;-78
2020/12/23 02:35:53;;;;;;;13.20;3.65;;;;;;;;;;5051809;28;20360;-78
2020/12/23 02:38:19;;;;;;;9.48;2.70;;;;;;;;;;5051721;28;20375;-78
2020/12/23 02:40:45;;;;;;;6.85;2.30;;;;;;;;;;5033904;28;20403;-78
2020/12/23 02:43:11;;;;;;;12.02;2.75;;;;;;;;;;5051928;28;20446;-78
2020/12/23 02:45:37;;;;;;;14.63;3.33;;;;;;;;;;5051633;28;20850;-78
2020/12/23 02:48:03;;;;;;;9.15;2.92;;;;;;;;;;5034276;28;20375;-78
2020/12/23 02:50:29;;;;;;;10.45;2.47;;;;;;;;;;5052002;28;20398;-78
2020/12/23 02:52:55;;;;;;;9.32;2.67;;;;;;;;;;5033910;28;20707;-78
2020/12/23 02:55:21;;;;;;;11.60;2.93;;;;;;;;;;5051538;28;20449;-78
2020/12/23 02:57:47;;;;;;;10.57;2.70;;;;;;;;;;5054179;28;20368;-78
2020/12/23 03:00:13;;;;;;;8.85;2.63;;;;;;;;;;5037235;28;20818;-78
2020/12/23 03:02:39;;;;;;;9.63;3.03;;;;;;;;;;5037544;28;20387;-77
2020/12/23 03:05:05;;;;;;;9.93;2.60;;;;;;;;;;5055486;28;20837;-78
2020/12/23 03:07:31;;;;;;;15.07;3.57;;;;;;;;;;5037583;28;20443;-78
2020/12/23 03:09:57;;;;;;;11.10;2.83;;;;;;;;;;5037327;28;20950;-78
2020/12/23 03:12:23;;;;;;;8.90;2.78;;;;;;;;;;5037366;28;20450;-78
2020/12/23 03:14:49;;;;;;;10.13;2.80;;;;;;;;;;5037315;28;20453;-78
2020/12/23 03:17:15;;;;;;;10.95;2.90;;;;;;;;;;5055172;28;20396;-78
2020/12/23 03:19:41;;;;;;;11.02;2.88;;;;;;;;;;5055383;28;21112;-78
2020/12/23 03:22:07;;;;;;;11.63;2.92;;;;;;;;;;5054616;28;20410;-77
2020/12/23 03:24:33;;;;;;;10.30;2.67;;;;;;;;;;5054808;28;20842;-78
2020/12/23 03:26:59;;;;;;;8.27;2.73;;;;;;;;;;5055018;28;20449;-78
2020/12/23 03:29:25;;;;;;;13.60;3.30;;;;;;;;;;5054635;28;20826;-79
2020/12/23 03:31:51;;;;;;;10.85;3.45;;;;;;;;;;5036874;28;20380;-79
2020/12/23 03:34:17;;;;;;;10.10;3.20;;;;;;;;;;5037164;28;20448;-78
2020/12/23 03:36:43;;;;;;;8.38;2.72;;;;;;;;;;5036866;28;20723;-78
2020/12/23 03:39:09;;;;;;;11.43;2.97;;;;;;;;;;5036361;28;20371;-78
2020/12/23 03:41:35;;;;;;;6.93;2.45;;;;;;;;;;5054520;28;20453;-78
2020/12/23 03:44:01;;;;;;;11.55;2.70;;;;;;;;;;5054234;28;20351;-78
2020/12/23 03:46:27;;;;;;;11.93;3.80;;;;;;;;;;5054193;28;20395;-78
2020/12/23 03:48:53;;;;;;;11.45;3.53;;;;;;;;;;5053965;28;20360;-78
2020/12/23 03:51:19;;;;;;;8.07;2.85;;;;;;;;;;5054310;28;20394;-78
2020/12/23 03:53:45;;;;;;;11.55;3.05;;;;;;;;;;5054102;28;20734;-78
2020/12/23 03:56:11;;;;;;;11.15;2.97;;;;;;;;;;5036179;28;20360;-78
2020/12/23 03:58:37;;;;;;;10.98;2.78;;;;;;;;;;5036220;28;20364;-78
2020/12/23 04:01:04;;;;;;;11.65;2.78;;;;;;;;;;5053671;28;20399;-78
2020/12/23 04:03:29;;;;;;;8.03;2.77;;;;;;;;;;5053818;28;20358;-78
2020/12/23 04:05:55;;;;;;;12.32;3.30;;;;;;;;;;5036255;28;20941;-78
2020/12/23 04:08:21;;;;;;;8.27;2.65;;;;;;;;;;5036612;28;20367;-78
2020/12/23 04:10:47;;;;;;;11.10;2.90;;;;;;;;;;5053836;28;20363;-78
2020/12/23 04:13:13;;;;;;;9.82;3.17;;;;;;;;;;5036423;28;20372;-78
2020/12/23 04:15:39;;;;;;;12.65;3.10;;;;;;;;;;5054232;28;20359;-78
2020/12/23 04:18:05;;;;;;;8.93;3.10;;;;;;;;;;5056774;28;20360;-78
2020/12/23 04:20:32;;;;;;;13.68;3.15;;;;;;;;;;5054662;28;20397;-78
2020/12/23 04:22:58;;;;;;;10.13;2.87;;;;;;;;;;5035925;28;20364;-78
2020/12/23 04:25:24;;;;;;;9.52;2.78;;;;;;;;;;5036206;28;20417;-78
2020/12/23 04:27:50;;;;;;;12.63;3.50;;;;;;;;;;5053581;28;20359;-78
2020/12/23 04:30:16;;;;;;;12.48;3.42;;;;;;;;;;5035348;28;20704;-78
2020/12/23 04:32:42;;;;;;;12.10;3.42;;;;;;;;;;5053572;28;20356;-78
2020/12/23 04:35:08;;;;;;;10.52;3.50;;;;;;;;;;5053346;28;20717;-78
2020/12/23 04:37:34;;;;;;;12.45;3.55;;;;;;;;;;5035771;28;20368;-78
2020/12/23 04:40:01;;;;;;;13.38;3.97;;;;;;;;;;5053080;28;20774;-78
2020/12/23 04:42:28;;;;;;;13.43;4.30;;;;;;;;;;5035425;28;20408;-78
2020/12/23 04:44:55;;;;;;;11.05;3.58;;;;;;;;;;5036180;28;20368;-78
2020/12/23 04:47:25;;;;;;;12.73;3.80;;;;;;;;;;5053903;28;20383;-78
2020/12/23 04:49:55;;;;;;;9.10;3.47;;;;;;;;;;5053597;28;20362;-78
2020/12/23 04:52:24;;;;;;;11.52;3.90;;;;;;;;;;5053417;28;20364;-78
2020/12/23 04:54:50;;;;;;;14.57;4.38;;;;;;;;;;5035748;28;20395;-78
2020/12/23 04:57:18;;;;;;;11.35;4.22;;;;;;;;;;5053920;28;20383;-78
2020/12/23 04:59:44;;;;;;;15.55;4.10;;;;;;;;;;5034968;28;20407;-78
2020/12/23 05:02:10;;;;;;;13.40;4.18;;;;;;;;;;5035534;28;20407;-78
2020/12/23 05:04:36;;;;;;;10.25;3.50;;;;;;;;;;5035257;28;20380;-78
2020/12/23 05:07:04;;;;;;;15.05;5.05;;;;;;;;;;5052754;28;20785;-80
2020/12/23 05:09:30;;;;;;;18.95;4.53;;;;;;;;;;5052746;28;20360;-78
2020/12/23 05:11:57;;;;;;;18.27;4.18;;;;;;;;;;5034851;28;20372;-78
2020/12/23 05:14:23;;;;;;;20.10;5.33;;;;;;;;;;5052968;28;20382;-78
2020/12/23 05:16:49;;;;;;;19.63;5.50;;;;;;;;;;5034900;28;20426;-78
2020/12/23 05:19:17;;;;;;;18.60;4.82;;;;;;;;;;5034310;28;20356;-78
2020/12/23 05:21:44;;;;;;;15.15;4.70;;;;;;;;;;5034864;28;20483;-78
2020/12/23 05:24:10;;;;;;;19.55;5.63;;;;;;;;;;5035178;28;20376;-78
2020/12/23 05:26:39;;;;;;;17.40;4.95;;;;;;;;;;5034767;28;20357;-78
2020/12/23 05:29:05;;;;;;;19.67;5.25;;;;;;;;;;5035087;28;20397;-78
2020/12/23 05:31:32;;;;;;;17.55;5.20;;;;;;;;;;5034856;28;20384;-78
2020/12/23 05:33:59;;;;;;;23.15;5.65;;;;;;;;;;5034916;28;20366;-78
2020/12/23 05:36:25;;;;;;;15.95;5.75;;;;;;;;;;5034639;28;20454;-78
2020/12/23 05:38:52;;;;;;;16.67;6.00;;;;;;;;;;5052813;28;20364;-78
2020/12/23 05:41:18;;;;;;;24.35;6.07;;;;;;;;;;5034730;28;20404;-78
2020/12/23 05:43:44;;;;;;;19.50;6.20;;;;;;;;;;5034416;28;20372;-79
2020/12/23 05:46:11;;;;;;;19.27;6.75;;;;;;;;;;5052243;28;20352;-78
2020/12/23 05:48:39;;;;;;;19.42;6.63;;;;;;;;;;5052246;28;20450;-78
2020/12/23 05:51:06;;;;;;;24.33;6.78;;;;;;;;;;5034149;28;20372;-78
2020/12/23 05:53:33;;;;;;;22.27;6.40;;;;;;;;;;5052354;28;20367;-78
2020/12/23 05:56:00;;;;;;;20.38;7.40;;;;;;;;;;5052480;28;20364;-79
2020/12/23 05:58:28;;;;;;;21.20;6.88;;;;;;;;;;5035227;28;20367;-78
2020/12/23 06:00:55;;;;;;;21.33;7.88;;;;;;;;;;5033916;28;20491;-79
2020/12/23 06:03:27;;;;;;;25.58;7.40;;;;;;;;;;5034358;28;20376;-78
2020/12/23 06:05:58;;;;;;;21.85;7.85;;;;;;;;;;5052314;28;20392;-78
2020/12/23 06:08:29;;;;;;;25.05;8.20;;;;;;;;;;5052454;28;20363;-78
2020/12/23 06:11:08;;;;;;;21.85;7.57;;;;;;;;;;5052424;28;20360;-79
2020/12/23 06:13:42;;;;;;;18.13;6.13;;;;;;;;;;5052511;28;21081;-78
2020/12/23 06:16:09;;;;;;;27.80;8.23;;;;;;;;;;5052035;28;20361;-78
2020/12/23 06:18:37;;;;;;;27.33;7.60;;;;;;;;;;5051849;28;20439;-78
2020/12/23 06:21:08;;;;;;;19.98;6.47;;;;;;;;;;5051736;28;20434;-79
2020/12/23 06:23:34;;;;;;;18.77;6.10;;;;;;;;;;5034163;28;20371;-78
2020/12/23 06:26:01;;;;;;;20.80;6.45;;;;;;;;;;5034211;28;20403;-78
2020/12/23 06:28:28;;;;;;;21.75;6.63;;;;;;;;;;5052419;28;20364;-78
2020/12/23 06:30:55;;;;;;;26.73;7.35;;;;;;;;;;5051615;28;20356;-78
2020/12/23 06:33:22;;;;;;;15.93;5.68;;;;;;;;;;5055352;28;20352;-78
2020/12/23 06:35:48;;;;;;;16.17;5.80;;;;;;;;;;5038122;28;20360;-78
2020/12/23 06:38:21;;;;;;;20.20;6.07;;;;;;;;;;5038337;28;20363;-78
2020/12/23 06:40:57;;;;;;;17.13;5.30;;;;;;;;;;5038236;28;20743;-78
2020/12/23 06:43:43;;;;;;;19.67;5.45;;;;;;;;;;5055468;28;20367;-78
2020/12/23 06:46:09;;;;;;;16.15;5.85;;;;;;;;;;5037484;28;20367;-78
2020/12/23 06:48:35;;;;;;;17.55;5.75;;;;;;;;;;5038304;28;20360;-78
2020/12/23 06:51:01;;;;;;;20.88;5.53;;;;;;;;;;5059892;28;20843;-78
2020/12/23 06:53:45;;;;;;;18.02;5.22;;;;;;;;;;5055621;28;20442;-79
2020/12/23 06:56:31;;;;;;;15.20;4.55;;;;;;;;;;5037438;28;20379;-79
2020/12/23 06:58:57;;;;;;;22.25;5.25;;;;;;;;;;5037285;28;20902;-83
2020/12/23 07:01:23;;;;;;;20.38;4.72;;;;;;;;;;5037215;28;20495;-78
2020/12/23 07:03:50;;;;;;;23.15;4.75;;;;;;;;;;5055310;28;20455;-78
2020/12/23 07:06:29;;;;;;;15.13;4.90;;;;;;;;;;5038162;28;20741;-78
2020/12/23 07:08:55;;;;;;;19.45;5.35;;;;;;;;;;5037290;28;20399;-78
2020/12/23 07:11:21;;;;;;;13.10;4.13;;;;;;;;;;5054999;28;20417;-78
2020/12/23 07:13:49;;;;;;;14.97;4.73;;;;;;;;;;5055495;28;20356;-78
2020/12/23 07:16:15;;;;;;;19.37;4.90;;;;;;;;;;5055572;28;20439;-78
2020/12/23 07:18:41;;;;;;;20.97;5.10;;;;;;;;;;5055200;28;20443;-78
2020/12/23 07:21:08;;;;;;;19.90;5.13;;;;;;;;;;5037220;28;20396;-78
2020/12/23 07:23:35;;;;;;;15.50;4.95;;;;;;;;;;5054876;28;20364;-78
2020/12/23 07:26:03;;;;;;;18.83;4.93;;;;;;;;;;5037432;28;20364;-78
2020/12/23 07:28:39;;;;;;;16.65;4.95;;;;;;;;;;5037266;28;20716;-78
2020/12/23 07:31:06;;;;;;;14.02;4.10;;;;;;;;;;5036986;28;20364;-78
2020/12/23 07:33:33;;;;;;;12.20;4.65;;;;;;;;;;5036980;28;20375;-78
2020/12/23 07:36:00;;;;;;;19.35;5.85;;;;;;;;;;5054502;28;20356;-78
2020/12/23 07:38:27;;;;;;;17.20;5.13;;;;;;;;;;5036929;28;20374;-79
2020/12/23 07:40:54;;;;;;;21.60;5.03;;;;;;;;;;5036761;28;20873;-78
2020/12/23 07:43:20;;;;;;;15.43;4.60;;;;;;;;;;5053873;28;20858;-78
2020/12/23 07:45:46;;;;;;;21.50;5.05;;;;;;;;;;5036913;28;20368;-79
2020/12/23 07:48:12;;;;;;;12.20;4.65;;;;;;;;;;5055170;28;20372;-79
2020/12/23 07:50:40;;;;;;;14.07;4.63;;;;;;;;;;5036701;28;20376;-78
2020/12/23 07:53:13;;;;;;;14.95;4.25;;;;;;;;;;5036508;28;20376;-78
2020/12/23 07:55:40;;;;;;;17.48;4.72;;;;;;;;;;5036558;28;20364;-79
2020/12/23 07:58:06;;;;;;;20.45;5.63;;;;;;;;;;5054500;28;20364;-79
2020/12/23 08:00:33;;;;;;;15.32;4.60;;;;;;;;;;5053854;28;20414;-79
2020/12/23 08:02:59;;;;;;;21.60;5.90;;;;;;;;;;5036405;28;20368;-78
2020/12/23 08:05:25;;;;;;;16.60;4.63;;;;;;;;;;5054511;28;20379;-78
2020/12/23 08:07:55;;;;;;;15.97;4.33;;;;;;;;;;5042286;28;20377;-79
2020/12/23 08:10:21;;;;;;;18.48;5.30;;;;;;;;;;5074443;28;20359;-79
2020/12/23 08:12:54;;;;;;;20.13;5.50;;;;;;;;;;5073905;28;20388;-79
2020/12/23 08:15:21;;;;;;;19.67;4.50;;;;;;;;;;5056294;28;20363;-78
2020/12/23 08:17:47;;;;;;;17.27;4.70;;;;;;;;;;5073861;28;20370;-77
2020/12/23 08:20:14;;;;;;;21.13;5.07;;;;;;;;;;5073389;28;20374;-78
2020/12/23 08:22:41;;;;;;;20.33;5.28;;;;;;;;;;5073970;28;20354;-77
2020/12/23 08:25:17;;;;;;;21.73;5.13;;;;;;;;;;5059451;28;20406;-82
2020/12/23 08:27:44;;;;;;;12.85;4.45;;;;;;;;;;5057713;28;20367;-80
2020/12/23 08:30:21;;;;;;;22.25;6.43;;;;;;;;;;5045411;28;20795;-80
2020/12/23 08:32:53;;;;;;;18.70;5.05;;;;;;;;;;5052716;28;20374;-84
2020/12/23 08:35:24;;;;;;;18.98;5.68;;;;;;;;;;5067965;28;20362;-81
2020/12/23 08:37:50;;;;;;;18.47;5.40;;;;;;;;;;5054173;28;20395;-76
2020/12/23 08:40:17;;;;;;;22.90;6.20;;;;;;;;;;5066495;28;20780;-77
2020/12/23 08:42:58;;;;;;;14.45;4.72;;;;;;;;;;5055333;28;20369;-80
2020/12/23 08:45:26;;;;;;;20.13;5.82;;;;;;;;;;5055335;28;20369;-80
2020/12/23 08:47:52;;;;;;;17.15;5.22;;;;;;;;;;5073252;28;20370;-83
2020/12/23 08:50:19;;;;;;;13.32;4.70;;;;;;;;;;5073040;28;20416;-80
2020/12/23 08:52:52;;;;;;;17.00;5.47;;;;;;;;;;5072723;28;20358;-80
2020/12/23 08:55:19;;;;;;;20.60;5.72;;;;;;;;;;5055831;28;20355;-81
2020/12/23 08:57:46;;;;;;;21.15;5.97;;;;;;;;;;5062720;28;20419;-78
2020/12/23 09:00:18;;;;;;;15.68;5.25;;;;;;;;;;5058838;28;20401;-78
2020/12/23 09:02:45;;;;;;;16.98;5.75;;;;;;;;;;5033863;28;20890;-78
2020/12/23 09:05:30;;;;;;;15.88;5.22;;;;;;;;;;5033876;28;20474;-77
2020/12/23 09:08:04;;;;;;;16.20;5.05;;;;;;;;;;5071328;28;20378;-77
2020/12/23 09:10:30;;;;;;;19.10;5.05;;;;;;;;;;5071818;28;20393;-77
2020/12/23 09:13:06;;;;;;;14.82;5.28;;;;;;;;;;5054227;28;20460;-77
2020/12/23 09:15:32;;;;;;;16.50;5.60;;;;;;;;;;5072339;28;20920;-78
2020/12/23 09:18:05;;;;;;;22.27;6.88;;;;;;;;;;5072008;28;20388;-77
2020/12/23 09:20:31;;;;;;;17.92;6.70;;;;;;;;;;5053962;28;20366;-77
2020/12/23 09:22:57;;;;;;;20.23;6.47;;;;;;;;;;5053993;28;20373;-77
2020/12/23 09:25:29;;;;;;;18.73;5.45;;;;;;;;;;5071387;28;20845;-77
2020/12/23 09:27:55;;;;;;;19.37;5.10;;;;;;;;;;5071356;28;20910;-77
2020/12/23 09:30:30;;;;;;;19.35;4.93;;;;;;;;;;5065033;28;20372;-79
2020/12/23 09:32:56;;;;;;;19.08;5.00;;;;;;;;;;5039475;28;20382;-77
2020/12/23 09:35:24;;;;;;;20.45;5.35;;;;;;;;;;5065260;28;20354;-78
2020/12/23 09:37:50;;;;;;;24.15;5.78;;;;;;;;;;5060156;28;20362;-78
2020/12/23 09:40:16;;;;;;;18.13;5.35;;;;;;;;;;5047200;28;20364;-77
2020/12/23 09:42:42;;;;;;;20.65;5.68;;;;;;;;;;5056846;28;20366;-77
2020/12/23 09:45:09;;;;;;;17.67;5.45;;;;;;;;;;5065023;28;20362;-79
2020/12/23 09:47:35;;;;;;;23.20;6.05;;;;;;;;;;5060403;28;20894;-77
2020/12/23 09:50:03;;;;;;;18.75;5.78;;;;;;;;;;5037720;28;20455;-78
2020/12/23 09:52:29;;;;;;;20.67;6.67;;;;;;;;;;5040843;28;20382;-80
2020/12/23 09:54:55;;;;;;;15.82;5.28;;;;;;;;;;5068563;28;20457;-77
2020/12/23 09:57:21;;;;;;;22.42;6.68;;;;;;;;;;5053535;28;20751;-76
2020/12/23 09:59:47;;;;;;;21.35;6.22;;;;;;;;;;5032844;28;20874;-77
2020/12/23 10:02:13;;;;;;;24.43;6.17;;;;;;;;;;5049535;28;20973;-77
2020/12/23 10:04:39;;;;;;;21.07;6.30;;;;;;;;;;5051049;28;20462;-77
2020/12/23 10:07:05;;;;;;;19.60;5.82;;;;;;;;;;5054301;28;20846;-77
2020/12/23 10:09:31;;;;;;;18.42;5.95;;;;;;;;;;5053919;28;20426;-79
2020/12/23 10:11:57;;;;;;;16.00;5.30;;;;;;;;;;5054965;28;20368;-77
2020/12/23 10:14:23;;;;;;;17.08;5.60;;;;;;;;;;5054055;28;20421;-77
2020/12/23 10:16:49;;;;;;;21.00;5.50;;;;;;;;;;5054980;28;20388;-78
2020/12/23 10:19:15;;;;;;;20.35;6.20;;;;;;;;;;5054966;28;20380;-78
2020/12/23 10:21:41;;;;;;;22.02;6.35;;;;;;;;;;5073260;28;20884;-77
2020/12/23 10:24:07;;;;;;;20.50;6.63;;;;;;;;;;5075535;28;20370;-77
2020/12/23 10:26:33;;;;;;;21.35;8.05;;;;;;;;;;5072392;28;20374;-79
2020/12/23 10:28:59;;;;;;;23.05;6.97;;;;;;;;;;5040486;28;20413;-77
2020/12/23 10:31:25;;;;;;;21.58;6.57;;;;;;;;;;5040344;28;20860;-78
2020/12/23 10:33:51;;;;;;;19.77;6.32;;;;;;;;;;5065099;28;20351;-78
2020/12/23 10:36:17;;;;;;;19.15;5.97;;;;;;;;;;5038632;28;20368;-78
2020/12/23 10:38:44;;;;;;;16.98;6.13;;;;;;;;;;5037322;28;20364;-79
2020/12/23 10:41:11;;;;;;;18.27;6.20;;;;;;;;;;5054625;28;20434;-80
2020/12/23 10:43:39;;;;;;;24.23;7.28;;;;;;;;;;5037119;28;20394;-79
2020/12/23 10:46:08;;;;;;;28.00;7.60;;;;;;;;;;5055051;28;20822;-81
2020/12/23 10:48:34;;;;;;;16.88;5.93;;;;;;;;;;5057703;28;20374;-83
2020/12/23 10:51:03;;;;;;;18.57;6.53;;;;;;;;;;5070296;28;20846;-82
2020/12/23 10:53:29;;;;;;;19.90;6.70;;;;;;;;;;5066420;28;20378;-82
2020/12/23 10:55:56;;;;;;;20.30;6.38;;;;;;;;;;5052406;28;20362;-81
2020/12/23 10:58:23;;;;;;;19.50;5.85;;;;;;;;;;5062544;28;20430;-79
2020/12/23 11:00:49;;;;;;;17.50;5.95;;;;;;;;;;5040819;28;20403;-80
2020/12/23 11:03:15;;;;;;;16.83;5.60;;;;;;;;;;5056844;28;21142;-82
2020/12/23 11:05:41;;;;;;;19.85;5.68;;;;;;;;;;5066403;28;20760;-78
2020/12/23 11:08:08;;;;;;;19.70;6.13;;;;;;;;;;5060229;28;20376;-78
2020/12/23 11:10:34;;;;;;;15.38;5.18;;;;;;;;;;5065818;28;20375;-79
2020/12/23 11:13:00;;;;;;;18.50;5.88;;;;;;;;;;5043269;28;20450;-80
2020/12/23 11:15:26;;;;;;;21.65;5.95;;;;;;;;;;5061513;28;20377;-77
2020/12/23 11:17:52;;;;;;;20.87;6.73;;;;;;;;;;5046433;28;20387;-77
2020/12/23 11:20:19;;;;;;;16.63;5.43;;;;;;;;;;5051440;28;20371;-78
2020/12/23 11:22:47;;;;;;;20.55;5.82;;;;;;;;;;5043776;28;20395;-80
2020/12/23 11:25:13;;;;;;;17.33;5.60;;;;;;;;;;5066113;28;20374;-81
2020/12/23 11:27:39;;;;;;;19.30;5.63;;;;;;;;;;5048336;28;20419;-80
2020/12/23 11:30:05;;;;;;;15.38;5.75;;;;;;;;;;5040419;28;20367;-81
2020/12/23 11:32:31;;;;;;;18.02;5.80;;;;;;;;;;5056824;28;20395;-82
2020/12/23 11:34:57;;;;;;;14.23;5.32;;;;;;;;;;5036753;28;20476;-78
2020/12/23 11:37:24;;;;;;;14.25;5.90;;;;;;;;;;5071555;28;20358;-81
2020/12/23 11:39:50;;;;;;;18.08;6.32;;;;;;;;;;5045420;28;20380;-82
2020/12/23 11:42:16;;;;;;;16.48;6.20;;;;;;;;;;5040270;28;20391;-83
2020/12/23 11:44:42;;;;;;;15.85;6.18;;;;;;;;;;5039217;28;20667;-79
2020/12/23 11:47:09;;;;;;;15.20;6.32;;;;;;;;;;5040687;28;20366;-80
2020/12/23 11:49:35;;;;;;;18.00;6.90;;;;;;;;;;5059897;28;20379;-78
2020/12/23 11:52:01;;;;;;;14.82;6.03;;;;;;;;;;5065421;28;20370;-78
2020/12/23 11:54:27;;;;;;;19.92;7.15;;;;;;;;;;5069309;28;20366;-78
2020/12/23 11:56:53;;;;;;;19.10;7.03;;;;;;;;;;5048985;28;20435;-77
2020/12/23 11:59:19;;;;;;;19.92;7.00;;;;;;;;;;5048070;28;20424;-77
2020/12/23 12:01:45;;;;;;;16.92;6.45;;;;;;;;;;5046956;28;20413;-77
2020/12/23 12:04:11;;;;;;;17.58;6.80;;;;;;;;;;5049397;28;20392;-78
2020/12/23 12:06:37;;;;;;;17.23;6.97;;;;;;;;;;5045165;28;20379;-77
2020/12/23 12:09:03;;;;;;;22.42;7.60;;;;;;;;;;5073580;28;20675;-77
2020/12/23 12:11:29;;;;;;;19.03;7.20;;;;;;;;;;5065030;28;20386;-78
2020/12/23 12:13:55;;;;;;;17.63;7.47;;;;;;;;;;5073490;28;20401;-79
2020/12/23 12:16:21;;;;;;;20.47;7.47;;;;;;;;;;5073016;28;20878;-77
2020/12/23 12:18:47;;;;;;;17.88;7.05;;;;;;;;;;5073168;28;20701;-78
2020/12/23 12:21:13;;;;;;;18.33;8.38;;;;;;;;;;5038115;28;20415;-77
2020/12/23 12:23:43;;;;;;;18.42;7.50;;;;;;;;;;5057149;28;20360;-80
2020/12/23 12:26:14;;;;;;;22.38;8.70;;;;;;;;;;5043205;28;20755;-78
2020/12/23 12:28:43;;;;;;;17.60;8.77;;;;;;;;;;5070876;28;20358;-81
2020/12/23 12:31:18;;;;;;;23.30;9.68;;;;;;;;;;5048903;28;20380;-79
2020/12/23 12:33:56;;;;;;;20.95;8.77;;;;;;;;;;5045008;28;20365;-80
2020/12/23 12:36:22;;;;;;;19.95;8.85;;;;;;;;;;5064993;28;20453;-81
2020/12/23 12:38:49;;;;;;;26.77;10.55;;;;;;;;;;5064887;28;20350;-81
2020/12/23 12:41:26;;;;;;;22.40;10.27;;;;;;;;;;5042258;28;20392;-83
2020/12/23 12:43:52;;;;;;;25.73;11.32;;;;;;;;;;5048645;28;20477;-76
2020/12/23 12:46:27;;;;;;;28.27;10.88;;;;;;;;;;5061459;28;20360;-81
2020/12/23 12:48:55;;;;;;;30.70;12.15;;;;;;;;;;5059547;28;20378;-81
2020/12/23 12:51:28;;;;;;;27.70;11.32;;;;;;;;;;5054601;28;20808;-78
2020/12/23 12:53:54;;;;;;;27.50;12.15;;;;;;;;;;5051418;28;20471;-82
2020/12/23 12:56:30;;;;;;;26.87;12.30;;;;;;;;;;5049104;28;20365;-79
2020/12/23 12:58:56;;;;;;;24.50;11.63;;;;;;;;;;5044359;28;20469;-79
2020/12/23 13:01:33;;;;;;;33.20;13.55;;;;;;;;;;5042524;28;21493;-78
2020/12/23 13:03:59;;;;;;;33.35;13.57;;;;;;;;;;5044983;28;20891;-80
2020/12/23 13:06:25;;;;;;;30.45;12.70;;;;;;;;;;5068978;28;20366;-80
2020/12/23 13:08:51;;;;;;;33.22;13.65;;;;;;;;;;5061536;28;20369;-79
2020/12/23 13:11:21;;;;;;;32.97;13.60;;;;;;;;;;5055555;28;20766;-80
2020/12/23 13:13:47;;;;;;;33.83;13.25;;;;;;;;;;5056858;28;20368;-78
2020/12/23 13:16:14;;;;;;;36.50;13.55;;;;;;;;;;5039211;28;20380;-80
2020/12/23 13:18:40;;;;;;;30.25;13.23;;;;;;;;;;5065416;28;20413;-80
2020/12/23 13:21:06;;;;;;;34.80;13.03;;;;;;;;;;5064623;28;20981;-79
2020/12/23 13:23:33;;;;;;;33.08;13.65;;;;;;;;;;5046108;28;20427;-78
2020/12/23 13:25:59;;;;;;;31.25;13.60;;;;;;;;;;5060239;28;20455;-78
2020/12/23 13:28:27;;;;;;;32.70;13.63;;;;;;;;;;5037504;28;20372;-79
2020/12/23 13:30:56;;;;;;;32.33;13.70;;;;;;;;;;5041279;28;20402;-78
2020/12/23 13:33:23;;;;;;;35.30;14.30;;;;;;;;;;5058308;28;20772;-79
2020/12/23 13:35:49;;;;;;;40.75;13.45;;;;;;;;;;5057000;28;20370;-78
2020/12/23 13:38:15;;;;;;;34.03;13.05;;;;;;;;;;5064315;28;20362;-78
2020/12/23 13:40:41;;;;;;;34.70;12.23;;;;;;;;;;5051330;28;20889;-81
2020/12/23 13:43:07;;;;;;;31.07;12.33;;;;;;;;;;5036875;28;20377;-79
2020/12/23 13:45:33;;;;;;;30.70;11.63;;;;;;;;;;5063503;28;20457;-78
2020/12/23 13:47:59;;;;;;;31.13;12.43;;;;;;;;;;5061895;28;20364;-78
2020/12/23 13:50:25;;;;;;;31.58;11.50;;;;;;;;;;5034724;28;20385;-78
2020/12/23 13:52:51;;;;;;;34.00;12.85;;;;;;;;;;5060238;28;20378;-78
2020/12/23 13:55:18;;;;;;;33.83;12.93;;;;;;;;;;5035645;28;20447;-78
2020/12/23 13:57:44;;;;;;;34.55;13.00;;;;;;;;;;5045571;28;20396;-79
2020/12/23 14:00:10;;;;;;;29.40;12.05;;;;;;;;;;5062216;28;20370;-79
2020/12/23 14:02:36;;;;;;;30.15;12.60;;;;;;;;;;5056771;28;20882;-78
2020/12/23 14:05:02;;;;;;;34.88;12.05;;;;;;;;;;5042728;28;20379;-85
2020/12/23 14:07:31;;;;;;;31.98;12.30;;;;;;;;;;5039954;28;20446;-77
2020/12/23 14:09:57;;;;;;;37.58;14.02;;;;;;;;;;5061978;28;20374;-78
2020/12/23 14:12:23;;;;;;;35.55;13.73;;;;;;;;;;5060585;28;20404;-77
2020/12/23 14:14:51;;;;;;;36.83;14.13;;;;;;;;;;5037981;28;20466;-80
2020/12/23 14:17:19;;;;;;;35.35;14.02;;;;;;;;;;5039744;28;20404;-77
2020/12/23 14:19:45;;;;;;;37.72;13.90;;;;;;;;;;5061235;28;20742;-80
2020/12/23 14:22:11;;;;;;;37.20;13.93;;;;;;;;;;5045201;28;20417;-80
2020/12/23 14:24:37;;;;;;;39.30;14.65;;;;;;;;;;5054689;28;20367;-79
2020/12/23 14:27:03;;;;;;;38.53;14.23;;;;;;;;;;5059957;28;20435;-79
2020/12/23 14:29:32;;;;;;;42.27;14.33;;;;;;;;;;5059685;28;20374;-80